createdAt,value
2018-03-06T00:01:50.963Z,64.51
2018-03-06T00:04:20.070Z,64.94
2018-03-06T00:06:50.454Z,65.24
2018-03-06T00:09:19.578Z,65.64
2018-03-06T00:11:48.684Z,66.01
2018-03-06T00:14:18.551Z,66.21
2018-03-06T00:16:47.673Z,66.32
2018-03-06T00:19:16.764Z,65.75
2018-03-06T00:21:45.882Z,65.58
2018-03-06T00:24:15.738Z,66.03
2018-03-06T00:26:44.837Z,66.04
2018-03-06T00:29:13.933Z,66.25
2018-03-06T00:31:43.029Z,66.15
2018-03-06T00:34:12.122Z,65.59
2018-03-06T00:36:41.251Z,65.84
2018-03-06T00:39:10.338Z,65.56
2018-03-06T00:41:40.238Z,66.01
2018-03-06T00:44:09.343Z,66.52
2018-03-06T00:46:38.491Z,66.53
2018-03-06T00:49:08.338Z,66.02
2018-03-06T00:51:37.425Z,66.03
2018-03-06T00:54:06.522Z,65.29
2018-03-06T00:56:35.614Z,64.79
2018-03-06T00:59:04.723Z,64.62
2018-03-06T01:01:33.809Z,64.55
2018-03-06T01:04:02.907Z,64.66
2018-03-06T01:06:32.012Z,64.64
2018-03-06T01:09:01.114Z,64.27
2018-03-06T01:11:30.210Z,63.95
2018-03-06T01:13:59.319Z,63.24
2018-03-06T01:16:28.432Z,62.95
2018-03-06T01:18:58.301Z,63.88
2018-03-06T01:21:27.385Z,64.41
2018-03-06T01:23:56.564Z,64.08
2018-03-06T01:26:26.431Z,64.02
2018-03-06T01:28:55.537Z,63.53
2018-03-06T01:31:24.638Z,63.03
2018-03-06T01:33:53.783Z,63.22
2018-03-06T01:36:22.878Z,63.60
2018-03-06T01:38:51.994Z,63.08
2018-03-06T01:41:21.087Z,63.12
2018-03-06T01:43:50.204Z,63.46
2018-03-06T01:46:20.092Z,63.04
2018-03-06T01:48:49.181Z,63.18
2018-03-06T01:51:18.401Z,63.84
2018-03-06T01:53:47.491Z,63.92
2018-03-06T01:56:16.607Z,64.11
2018-03-06T01:58:45.702Z,64.01
2018-03-06T02:01:15.583Z,64.03
2018-03-06T02:03:44.679Z,64.09
2018-03-06T02:06:13.770Z,64.00
2018-03-06T02:08:42.879Z,64.42
2018-03-06T02:11:11.970Z,64.93
2018-03-06T02:13:41.085Z,65.48
2018-03-06T02:16:10.193Z,65.16
2018-03-06T02:18:39.316Z,65.40
2018-03-06T02:21:08.403Z,65.66
2018-03-06T02:23:37.512Z,65.40
2018-03-06T02:26:07.371Z,65.99
2018-03-06T02:28:36.478Z,65.75
2018-03-06T02:31:05.579Z,65.69
2018-03-06T02:33:35.461Z,65.75
2018-03-06T02:36:04.551Z,65.95
2018-03-06T02:38:34.419Z,65.80
2018-03-06T02:41:03.506Z,66.01
2018-03-06T02:43:32.628Z,66.33
2018-03-06T02:46:11.474Z,66.03
2018-03-06T02:48:41.354Z,65.65
2018-03-06T02:51:10.453Z,65.40
2018-03-06T02:53:39.570Z,65.35
2018-03-06T02:56:09.434Z,64.99
2018-03-06T02:58:38.541Z,64.55
2018-03-06T03:01:08.407Z,63.82
2018-03-06T03:03:38.286Z,63.38
2018-03-06T03:06:07.403Z,63.28
2018-03-06T03:08:37.263Z,63.29
2018-03-06T03:11:07.155Z,63.00
2018-03-06T03:13:36.249Z,63.20
2018-03-06T03:16:05.355Z,62.92
2018-03-06T03:18:34.532Z,62.92
2018-03-06T03:21:04.395Z,63.17
2018-03-06T03:23:33.511Z,63.00
2018-03-06T03:26:02.606Z,63.53
2018-03-06T03:28:31.713Z,64.34
2018-03-06T03:31:00.824Z,64.10
2018-03-06T03:33:30.710Z,64.12
2018-03-06T03:35:59.850Z,64.66
2018-03-06T03:38:28.946Z,64.93
2018-03-06T03:40:58.831Z,65.21
2018-03-06T03:43:27.917Z,65.52
2018-03-06T03:45:57.805Z,66.12
2018-03-06T03:48:26.900Z,66.24
2018-03-06T03:50:56.009Z,66.46
2018-03-06T03:53:25.149Z,66.86
2018-03-06T03:55:55.034Z,66.29
2018-03-06T03:58:24.121Z,66.00
2018-03-06T04:00:54.018Z,66.11
2018-03-06T04:03:23.106Z,66.14
2018-03-06T04:05:52.218Z,65.59
2018-03-06T04:08:21.322Z,65.38
2018-03-06T04:10:50.457Z,65.25
2018-03-06T04:13:20.315Z,65.07
2018-03-06T04:15:49.501Z,64.81
2018-03-06T04:18:18.629Z,64.36
2018-03-06T04:20:47.732Z,64.40
2018-03-06T04:23:16.857Z,64.81
2018-03-06T04:25:46.708Z,65.28
2018-03-06T04:28:17.780Z,65.68
2018-03-06T04:30:46.875Z,66.23
2018-03-06T04:33:15.978Z,66.72
2018-03-06T04:35:45.068Z,66.90
2018-03-06T04:38:14.182Z,67.25
2018-03-06T04:40:44.058Z,67.48
2018-03-06T04:43:13.174Z,67.65
2018-03-06T04:45:42.262Z,67.96
2018-03-06T04:48:11.381Z,68.07
2018-03-06T04:50:40.486Z,68.18
2018-03-06T04:53:09.575Z,68.33
2018-03-06T04:55:38.692Z,68.33
2018-03-06T04:58:08.563Z,68.67
2018-03-06T05:00:38.932Z,68.78
2018-03-06T05:03:08.058Z,68.73
2018-03-06T05:05:37.181Z,68.92
2018-03-06T05:08:06.285Z,68.47
2018-03-06T05:10:35.403Z,68.61
2018-03-06T05:13:04.488Z,68.43
2018-03-06T05:15:33.604Z,68.11
2018-03-06T05:18:03.462Z,67.22
2018-03-06T05:20:32.569Z,66.73
2018-03-06T05:23:01.703Z,66.72
2018-03-06T05:25:30.798Z,66.72
2018-03-06T05:28:00.664Z,67.13
2018-03-06T05:30:29.776Z,67.21
2018-03-06T05:32:58.869Z,67.69
2018-03-06T05:35:28.041Z,67.67
2018-03-06T05:37:57.135Z,67.87
2018-03-06T05:40:26.278Z,67.79
2018-03-06T05:42:55.378Z,68.49
2018-03-06T05:45:24.512Z,69.04
2018-03-06T05:47:53.631Z,69.12
2018-03-06T05:50:22.749Z,69.36
2018-03-06T05:52:51.851Z,69.49
2018-03-06T05:55:21.003Z,69.43
2018-03-06T05:57:50.121Z,69.72
2018-03-06T06:00:19.242Z,70.03
2018-03-06T06:02:48.338Z,70.50
2018-03-06T06:05:17.474Z,70.34
2018-03-06T06:07:47.338Z,70.26
2018-03-06T06:10:16.432Z,70.05
2018-03-06T06:12:45.538Z,70.11
2018-03-06T06:15:15.420Z,70.58
2018-03-06T06:17:44.503Z,70.57
2018-03-06T06:20:13.590Z,70.03
2018-03-06T06:22:42.750Z,69.81
2018-03-06T06:25:11.839Z,69.67
2018-03-06T06:27:40.952Z,69.99
2018-03-06T06:30:10.123Z,69.81
2018-03-06T06:32:39.221Z,69.65
2018-03-06T06:35:08.309Z,69.91
2018-03-06T06:37:38.219Z,70.19
2018-03-06T06:40:07.321Z,70.63
2018-03-06T06:42:37.044Z,70.28
2018-03-06T06:45:06.899Z,70.33
2018-03-06T06:47:36.783Z,70.64
2018-03-06T06:50:05.910Z,71.19
2018-03-06T06:52:36.125Z,70.36
2018-03-06T06:55:06.018Z,70.40
2018-03-06T06:57:35.153Z,70.56
2018-03-06T07:00:05.063Z,69.85
2018-03-06T07:02:35.082Z,68.53
2018-03-06T07:05:04.173Z,68.53
2018-03-06T07:07:34.050Z,68.59
2018-03-06T07:10:03.178Z,68.66
2018-03-06T07:12:32.270Z,68.11
2018-03-06T07:15:01.364Z,67.96
2018-03-06T07:17:30.473Z,67.46
2018-03-06T07:20:00.333Z,67.76
2018-03-06T07:22:29.460Z,67.71
2018-03-06T07:24:58.557Z,67.76
2018-03-06T07:27:27.684Z,67.44
2018-03-06T07:29:57.521Z,67.34
2018-03-06T07:32:27.494Z,66.96
2018-03-06T07:34:57.342Z,67.17
2018-03-06T07:37:26.450Z,66.29
2018-03-06T07:39:55.558Z,66.22
2018-03-06T07:42:24.656Z,65.49
2018-03-06T07:44:53.784Z,65.86
2018-03-06T07:47:22.876Z,65.51
2018-03-06T07:49:51.996Z,65.49
2018-03-06T07:52:21.878Z,65.09
2018-03-06T07:54:50.988Z,65.10
2018-03-06T07:57:20.110Z,65.74
2018-03-06T07:59:49.202Z,65.37
2018-03-06T08:02:18.387Z,65.18
2018-03-06T08:04:47.465Z,65.21
2018-03-06T08:07:16.596Z,64.58
2018-03-06T08:09:46.443Z,64.66
2018-03-06T08:12:15.542Z,64.22
2018-03-06T08:14:45.419Z,64.47
2018-03-06T08:17:14.531Z,64.38
2018-03-06T08:19:43.699Z,63.77
2018-03-06T08:22:12.824Z,63.41
2018-03-06T08:24:41.929Z,63.45
2018-03-06T08:27:11.092Z,63.26
2018-03-06T08:29:40.978Z,63.43
2018-03-06T08:32:10.078Z,62.79
2018-03-06T08:34:39.192Z,62.70
2018-03-06T08:37:09.086Z,62.60
2018-03-06T08:39:38.179Z,62.30
2018-03-06T08:42:07.284Z,62.39
2018-03-06T08:44:36.407Z,62.61
2018-03-06T08:47:06.282Z,62.70
2018-03-06T08:49:35.382Z,62.83
2018-03-06T08:52:04.494Z,62.36
2018-03-06T08:54:33.602Z,62.13
2018-03-06T08:57:03.474Z,62.05
2018-03-06T08:59:32.585Z,61.83
2018-03-06T09:02:01.679Z,62.01
2018-03-06T09:04:30.807Z,62.16
2018-03-06T09:07:00.721Z,61.99
2018-03-06T09:09:30.583Z,62.46
2018-03-06T09:11:59.687Z,61.86
2018-03-06T09:14:28.786Z,61.63
2018-03-06T09:16:57.906Z,61.26
2018-03-06T09:19:27.758Z,61.04
2018-03-06T09:21:56.877Z,60.45
2018-03-06T09:24:26.009Z,60.33
2018-03-06T09:26:55.095Z,60.74
2018-03-06T09:29:24.214Z,60.87
2018-03-06T09:31:54.062Z,60.98
2018-03-06T09:34:23.184Z,61.29
2018-03-06T09:36:52.311Z,60.01
2018-03-06T09:39:21.416Z,60.04
2018-03-06T09:41:51.299Z,59.75
2018-03-06T09:44:21.164Z,60.04
2018-03-06T09:46:50.273Z,59.92
2018-03-06T09:49:20.148Z,59.83
2018-03-06T09:51:49.253Z,59.49
2018-03-06T09:54:19.129Z,59.16
2018-03-06T09:56:48.261Z,59.28
2018-03-06T09:59:17.379Z,59.08
2018-03-06T10:01:46.469Z,58.16
2018-03-06T10:04:15.582Z,58.09
2018-03-06T10:06:44.720Z,57.83
2018-03-06T10:09:13.793Z,57.54
2018-03-06T10:11:42.897Z,57.36
2018-03-06T10:14:11.989Z,57.40
2018-03-06T10:16:41.116Z,57.24
2018-03-06T10:19:10.241Z,57.08
2018-03-06T10:21:39.356Z,57.48
2018-03-06T10:24:08.455Z,57.43
2018-03-06T10:26:37.606Z,57.39
2018-03-06T10:29:06.702Z,57.38
2018-03-06T10:31:35.823Z,56.84
2018-03-06T10:34:04.911Z,56.54
2018-03-06T10:36:34.793Z,56.11
2018-03-06T10:39:03.891Z,56.19
2018-03-06T10:41:33.024Z,56.39
2018-03-06T10:44:02.905Z,55.24
2018-03-06T10:46:32.016Z,55.07
2018-03-06T10:49:01.110Z,54.92
2018-03-06T10:51:30.978Z,54.49
2018-03-06T10:54:00.085Z,54.73
2018-03-06T10:56:29.174Z,55.23
2018-03-06T10:58:58.311Z,55.91
2018-03-06T11:01:33.222Z,55.65
2018-03-06T11:04:02.335Z,55.97
2018-03-06T11:06:31.420Z,55.66
2018-03-06T11:09:00.534Z,55.95
2018-03-06T11:11:30.382Z,55.24
2018-03-06T11:13:59.509Z,55.05
2018-03-06T11:16:28.618Z,55.36
2018-03-06T11:18:57.736Z,55.31
2018-03-06T11:21:27.617Z,55.83
2018-03-06T11:23:56.735Z,55.66
2018-03-06T11:26:25.828Z,54.59
2018-03-06T11:28:54.941Z,54.01
2018-03-06T11:31:24.814Z,53.84
2018-03-06T11:33:53.942Z,53.69
2018-03-06T11:36:23.041Z,53.50
2018-03-06T11:38:52.906Z,53.64
2018-03-06T11:41:22.020Z,53.48
2018-03-06T11:43:51.135Z,53.57
2018-03-06T11:46:21.222Z,52.86
2018-03-06T11:48:50.338Z,52.68
2018-03-06T11:51:20.193Z,52.98
2018-03-06T11:53:50.084Z,53.69
2018-03-06T11:56:19.963Z,54.00
2018-03-06T11:58:49.115Z,54.07
2018-03-06T12:01:18.976Z,53.83
2018-03-06T12:03:48.105Z,53.45
2018-03-06T12:06:17.242Z,52.57
2018-03-06T12:08:46.361Z,51.82
2018-03-06T12:11:15.477Z,51.92
2018-03-06T12:13:45.337Z,51.89
2018-03-06T12:16:14.441Z,51.85
2018-03-06T12:18:43.572Z,52.81
2018-03-06T12:21:12.656Z,52.23
2018-03-06T12:23:41.774Z,52.19
2018-03-06T12:26:12.395Z,51.62
2018-03-06T12:28:42.277Z,53.22
2018-03-06T12:31:12.135Z,51.90
2018-03-06T12:33:41.233Z,51.86
2018-03-06T12:36:10.357Z,53.29
2018-03-06T12:38:39.441Z,52.50
2018-03-06T12:41:08.554Z,51.61
2018-03-06T12:43:38.417Z,51.77
2018-03-06T12:46:07.520Z,51.21
2018-03-06T12:48:36.641Z,50.66
2018-03-06T12:51:05.759Z,51.53
2018-03-06T12:53:35.649Z,52.07
2018-03-06T12:56:04.741Z,51.52
2018-03-06T12:58:33.862Z,50.89
2018-03-06T13:01:03.720Z,50.95
2018-03-06T13:03:33.613Z,50.56
2018-03-06T13:06:02.719Z,50.97
2018-03-06T13:08:31.869Z,50.63
2018-03-06T13:11:00.980Z,51.38
2018-03-06T13:13:30.887Z,50.22
2018-03-06T13:16:00.012Z,50.48
2018-03-06T13:18:29.132Z,50.19
2018-03-06T13:20:58.238Z,49.75
2018-03-06T13:23:27.349Z,49.22
2018-03-06T13:25:56.480Z,50.48
2018-03-06T13:28:26.390Z,49.91
2018-03-06T13:30:55.496Z,50.07
2018-03-06T13:33:25.394Z,49.79
2018-03-06T13:35:54.503Z,49.86
2018-03-06T13:38:24.391Z,49.76
2018-03-06T13:40:53.487Z,50.15
2018-03-06T13:43:22.615Z,49.16
2018-03-06T13:45:52.504Z,49.04
2018-03-06T13:48:21.605Z,49.63
2018-03-06T13:50:51.496Z,49.78
2018-03-06T13:55:48.875Z,49.65
2018-03-06T13:58:18.010Z,48.96
2018-03-06T14:00:47.904Z,48.38
2018-03-06T14:03:17.012Z,48.14
2018-03-06T14:05:46.897Z,47.88
2018-03-06T14:08:16.001Z,47.34
2018-03-06T14:10:45.113Z,47.05
2018-03-06T14:13:14.235Z,46.67
2018-03-06T14:15:43.347Z,46.21
2018-03-06T14:18:12.446Z,46.97
2018-03-06T14:20:41.574Z,47.43
2018-03-06T14:23:11.262Z,47.40
2018-03-06T14:25:40.347Z,47.06
2018-03-06T14:28:09.476Z,46.71
2018-03-06T14:30:38.602Z,45.30
2018-03-06T14:33:08.486Z,43.66
2018-03-06T14:35:37.614Z,41.42
2018-03-06T14:38:07.482Z,40.00
2018-03-06T14:40:36.611Z,39.51
2018-03-06T14:43:05.743Z,38.58
2018-03-06T14:45:34.839Z,39.10
2018-03-06T14:48:03.987Z,38.77
2018-03-06T14:50:33.868Z,38.62
2018-03-06T14:53:02.983Z,38.18
2018-03-06T14:55:32.109Z,38.06
2018-03-06T14:58:01.217Z,38.27
2018-03-06T15:00:31.114Z,37.72
2018-03-06T15:03:00.229Z,37.34
2018-03-06T15:05:30.108Z,38.16
2018-03-06T15:07:59.235Z,37.12
2018-03-06T15:10:28.386Z,37.50
2018-03-06T15:12:57.493Z,36.50
2018-03-06T15:15:26.605Z,37.31
2018-03-06T15:17:55.721Z,37.08
2018-03-06T15:20:24.831Z,37.67
2018-03-06T15:22:53.959Z,38.18
2018-03-06T15:25:23.851Z,36.75
2018-03-06T15:27:52.973Z,36.89
2018-03-06T15:30:22.081Z,36.96
2018-03-06T15:32:51.235Z,37.36
2018-03-06T15:35:21.098Z,37.51
2018-03-06T15:37:50.227Z,37.23
2018-03-06T15:40:20.122Z,38.45
2018-03-06T15:42:49.311Z,39.06
2018-03-06T15:45:18.430Z,39.88
2018-03-06T15:47:47.590Z,41.40
2018-03-06T15:50:17.496Z,43.09
2018-03-06T15:52:46.676Z,44.47
2018-03-06T15:55:15.800Z,45.05
2018-03-06T15:57:44.944Z,46.54
2018-03-06T16:00:14.895Z,47.75
2018-03-06T16:02:44.042Z,48.28
2018-03-06T16:05:13.204Z,49.02
2018-03-06T16:07:42.370Z,50.17
2018-03-06T16:10:11.550Z,50.60
2018-03-06T16:12:41.460Z,51.57
2018-03-06T16:15:10.603Z,52.18
2018-03-06T16:17:39.758Z,52.57
2018-03-06T16:20:09.675Z,52.75
2018-03-06T16:22:39.580Z,53.12
2018-03-06T16:25:09.499Z,53.59
2018-03-06T16:27:39.431Z,53.71
2018-03-06T16:30:09.372Z,53.91
2018-03-06T16:32:38.511Z,54.38
2018-03-06T16:35:07.678Z,54.86
2018-03-06T16:37:36.821Z,55.35
2018-03-06T16:40:05.955Z,55.67
2018-03-06T16:42:35.096Z,55.72
2018-03-06T16:45:04.263Z,55.74
2018-03-06T16:47:33.396Z,56.23
2018-03-06T16:50:02.614Z,56.38
2018-03-06T16:52:32.516Z,56.50
2018-03-06T16:55:01.688Z,56.88
2018-03-06T16:57:31.591Z,57.58
2018-03-06T17:00:00.744Z,57.82
2018-03-06T17:02:30.670Z,58.15
2018-03-06T17:04:59.815Z,58.56
2018-03-06T17:07:28.991Z,59.24
2018-03-06T17:09:58.125Z,59.62
2018-03-06T17:12:27.266Z,60.18
2018-03-06T17:14:56.407Z,60.52
2018-03-06T17:17:25.551Z,60.86
2018-03-06T17:19:55.447Z,61.33
2018-03-06T17:22:25.354Z,61.69
2018-03-06T17:24:54.509Z,62.35
2018-03-06T17:27:23.627Z,62.40
2018-03-06T17:29:52.767Z,62.88
2018-03-06T17:32:22.673Z,63.39
2018-03-06T17:34:52.589Z,63.68
2018-03-06T17:37:22.501Z,63.96
2018-03-06T17:39:52.426Z,64.33
2018-03-06T17:42:22.348Z,64.58
2018-03-06T17:44:51.535Z,64.93
2018-03-06T17:47:21.458Z,65.20
2018-03-06T17:49:50.648Z,65.54
2018-03-06T17:52:19.785Z,65.70
2018-03-06T17:54:48.936Z,65.68
2018-03-06T17:57:18.866Z,65.96
2018-03-06T17:59:48.764Z,66.27
2018-03-06T18:02:18.669Z,66.57
2018-03-06T18:04:47.801Z,66.52
2018-03-06T18:07:16.966Z,66.67
2018-03-06T18:09:46.108Z,66.85
2018-03-06T18:12:15.369Z,66.88
2018-03-06T18:14:45.261Z,67.13
2018-03-06T18:17:15.173Z,67.10
2018-03-06T18:19:44.319Z,67.03
2018-03-06T18:22:13.478Z,67.12
2018-03-06T18:24:42.612Z,67.19
2018-03-06T18:27:11.737Z,67.37
2018-03-06T18:29:40.907Z,67.35
2018-03-06T18:32:10.282Z,67.48
2018-03-06T18:34:39.433Z,67.59
2018-03-06T18:37:08.569Z,67.79
2018-03-06T18:39:37.721Z,67.76
2018-03-06T18:42:06.903Z,67.85
2018-03-06T18:44:36.793Z,67.93
2018-03-06T18:47:07.360Z,68.05
2018-03-06T18:49:36.522Z,68.24
2018-03-06T18:52:06.821Z,68.40
2018-03-06T18:54:35.975Z,68.58
2018-03-06T18:57:06.036Z,68.75
2018-03-06T18:59:35.263Z,68.90
2018-03-06T19:02:24.933Z,69.09
2018-03-06T19:05:12.554Z,69.45
2018-03-06T19:07:41.715Z,69.55
2018-03-06T19:10:10.866Z,69.48
2018-03-06T19:12:40.784Z,69.76
2018-03-06T19:15:10.714Z,70.12
2018-03-06T19:17:39.878Z,70.24
2018-03-06T19:20:09.023Z,70.40
2018-03-06T19:22:38.195Z,70.60
2018-03-06T19:25:08.123Z,70.61
2018-03-06T19:27:37.303Z,70.92
2018-03-06T19:30:07.203Z,70.93
2018-03-06T19:32:36.622Z,70.91
2018-03-06T19:35:06.519Z,70.92
2018-03-06T19:37:35.618Z,70.92
2018-03-06T19:40:04.760Z,70.97
2018-03-06T19:42:33.891Z,70.92
2018-03-06T19:45:03.020Z,70.88
2018-03-06T19:47:32.959Z,71.08
2018-03-06T19:50:02.143Z,71.01
2018-03-06T19:52:32.042Z,70.88
2018-03-06T19:55:01.934Z,71.12
2018-03-06T19:57:32.879Z,71.16
2018-03-06T20:00:02.010Z,71.21
2018-03-06T20:02:31.926Z,71.23
2018-03-06T20:05:01.782Z,71.13
2018-03-06T20:07:30.951Z,71.25
2018-03-06T20:10:00.123Z,71.12
2018-03-06T20:12:29.222Z,71.29
2018-03-06T20:15:03.971Z,71.45
2018-03-06T20:17:33.098Z,71.65
2018-03-06T20:20:02.228Z,72.18
2018-03-06T20:22:31.334Z,72.55
2018-03-06T20:25:06.664Z,72.88
2018-03-06T20:27:35.768Z,73.10
2018-03-06T20:30:05.654Z,73.13
2018-03-06T20:32:40.203Z,73.37
2018-03-06T20:35:10.090Z,73.60
2018-03-06T20:37:39.213Z,73.63
2018-03-06T20:40:14.636Z,73.78
2018-03-06T20:42:43.763Z,74.34
2018-03-06T20:45:13.629Z,74.46
2018-03-06T20:47:42.726Z,74.95
2018-03-06T20:50:11.829Z,75.38
2018-03-06T20:52:46.357Z,75.61
2018-03-06T20:55:15.473Z,75.71
2018-03-06T20:57:44.614Z,76.12
2018-03-06T21:00:13.758Z,76.38
2018-03-06T21:02:42.947Z,76.40
2018-03-06T21:05:12.069Z,76.49
2018-03-06T21:07:41.968Z,76.68
2018-03-06T21:10:11.088Z,76.67
2018-03-06T21:12:40.990Z,77.24
2018-03-06T21:15:10.109Z,77.31
2018-03-06T21:17:40.013Z,77.57
2018-03-06T21:20:09.885Z,77.68
2018-03-06T21:22:39.022Z,78.30
2018-03-06T21:25:08.868Z,78.53
2018-03-06T21:27:37.966Z,78.69
2018-03-06T21:30:07.094Z,78.76
2018-03-06T21:32:36.191Z,78.98
2018-03-06T21:35:05.282Z,79.36
2018-03-06T21:37:34.402Z,79.62
2018-03-06T21:40:03.509Z,79.62
2018-03-06T21:55:31.489Z,79.81
2018-03-06T21:58:00.608Z,80.10
2018-03-06T22:00:29.692Z,80.16
2018-03-06T22:02:58.794Z,80.40
2018-03-06T22:05:27.886Z,80.31
2018-03-06T22:07:57.772Z,80.76
2018-03-06T22:10:27.626Z,80.35
2018-03-06T22:12:56.718Z,80.51
2018-03-06T22:15:25.825Z,79.99
2018-03-06T22:17:54.910Z,79.90
2018-03-06T22:20:24.058Z,79.84
2018-03-06T22:22:53.950Z,79.49
2018-03-06T22:25:23.043Z,79.32
2018-03-06T22:27:52.147Z,79.19
2018-03-06T22:30:21.263Z,79.09
2018-03-06T22:32:51.130Z,79.16
2018-03-06T22:35:20.270Z,78.96
2018-03-06T22:37:49.351Z,78.97
2018-03-06T22:40:18.454Z,78.67
2018-03-06T22:42:47.557Z,78.66
2018-03-06T22:45:16.659Z,78.71
2018-03-06T22:47:46.505Z,78.69
2018-03-06T22:50:15.635Z,78.38
2018-03-06T22:52:44.767Z,78.46
2018-03-06T22:55:13.850Z,78.17
2018-03-06T22:57:43.712Z,78.27
2018-03-06T23:00:12.819Z,78.14
2018-03-06T23:02:41.942Z,78.04
2018-03-06T23:05:11.062Z,77.77
2018-03-06T23:07:40.963Z,77.82
2018-03-06T23:10:10.086Z,77.82
2018-03-06T23:12:39.949Z,77.74
2018-03-06T23:15:09.059Z,77.55
2018-03-06T23:17:38.225Z,77.64
2018-03-06T23:20:07.307Z,77.34
2018-03-06T23:22:36.918Z,77.37
2018-03-06T23:25:06.005Z,77.26
2018-03-06T23:27:35.089Z,77.37
2018-03-06T23:30:04.255Z,77.39
2018-03-06T23:32:34.095Z,77.38
2018-03-06T23:35:03.942Z,77.40
2018-03-06T23:37:33.086Z,77.38
2018-03-06T23:40:02.974Z,77.40
2018-03-06T23:42:32.074Z,77.41
2018-03-06T23:45:01.173Z,77.46
2018-03-06T23:47:30.270Z,77.27
2018-03-06T23:49:59.394Z,77.09
2018-03-06T23:52:28.482Z,77.60
2018-03-06T23:54:57.613Z,77.65
2018-03-06T23:57:26.706Z,77.49
2018-03-06T23:59:55.806Z,77.50
